createdAt,value
2019-02-04T00:00:24.080Z,6.03
2019-02-04T00:00:57.701Z,6.50
2019-02-04T00:01:28.899Z,6.53
2019-02-04T00:02:01.373Z,6.97
2019-02-04T00:02:32.668Z,6.33
2019-02-04T00:03:07.829Z,6.70
2019-02-04T00:03:39.110Z,7.03
2019-02-04T00:04:11.298Z,6.27
2019-02-04T00:04:42.649Z,6.43
2019-02-04T00:05:14.855Z,6.13
2019-02-04T00:05:46.119Z,6.03
2019-02-04T00:06:17.369Z,5.93
2019-02-04T00:06:48.638Z,6.57
2019-02-04T00:07:20.877Z,6.83
2019-02-04T00:07:52.104Z,7.80
2019-02-04T00:08:23.334Z,7.10
2019-02-04T00:08:54.663Z,6.83
2019-02-04T00:09:25.960Z,6.50
2019-02-04T00:09:57.492Z,6.57
2019-02-04T00:10:28.708Z,6.63
2019-02-04T00:11:00.029Z,7.37
2019-02-04T00:11:31.465Z,6.37
2019-02-04T00:12:02.800Z,6.10
2019-02-04T00:12:34.025Z,5.57
2019-02-04T00:13:05.542Z,6.63
2019-02-04T00:13:36.758Z,7.63
2019-02-04T00:14:07.969Z,7.23
2019-02-04T00:14:39.191Z,8.87
2019-02-04T00:15:10.469Z,9.73
2019-02-04T00:15:41.977Z,9.97
2019-02-04T00:16:13.206Z,9.37
2019-02-04T00:16:44.427Z,9.00
2019-02-04T00:17:15.691Z,9.30
2019-02-04T00:17:46.941Z,8.53
2019-02-04T00:18:18.149Z,8.60
2019-02-04T00:18:49.479Z,8.07
2019-02-04T00:19:20.705Z,7.93
2019-02-04T00:19:51.928Z,7.07
2019-02-04T00:20:23.162Z,7.93
2019-02-04T00:20:54.460Z,8.27
2019-02-04T00:21:25.872Z,9.10
2019-02-04T00:21:57.114Z,8.90
2019-02-04T00:22:28.840Z,7.93
2019-02-04T00:23:00.096Z,7.87
2019-02-04T00:23:31.646Z,8.93
2019-02-04T00:24:02.849Z,6.90
2019-02-04T00:24:34.081Z,7.37
2019-02-04T00:25:06.246Z,7.13
2019-02-04T00:25:37.458Z,7.33
2019-02-04T00:26:09.666Z,6.47
2019-02-04T00:26:51.065Z,6.37
2019-02-04T00:27:13.994Z,6.77
2019-02-04T00:27:45.187Z,6.70
2019-02-04T00:28:16.669Z,6.27
2019-02-04T00:28:48.025Z,7.07
2019-02-04T00:29:19.313Z,7.37
2019-02-04T00:29:50.543Z,7.03
2019-02-04T00:30:23.432Z,6.30
2019-02-04T00:30:54.664Z,7.90
2019-02-04T00:31:25.868Z,7.47
2019-02-04T00:31:57.164Z,8.23
2019-02-04T00:32:28.457Z,7.27
2019-02-04T00:32:59.791Z,6.67
2019-02-04T00:33:30.985Z,6.60
2019-02-04T00:34:02.289Z,7.53
2019-02-04T00:34:33.485Z,7.20
2019-02-04T00:35:05.205Z,6.53
2019-02-04T00:35:36.421Z,6.20
2019-02-04T00:36:07.726Z,6.43
2019-02-04T00:36:38.952Z,7.07
2019-02-04T00:37:10.274Z,6.50
2019-02-04T00:37:41.444Z,6.20
2019-02-04T00:38:12.665Z,5.63
2019-02-04T00:38:43.892Z,5.63
2019-02-04T00:39:15.108Z,6.27
2019-02-04T00:39:46.328Z,5.70
2019-02-04T00:40:20.806Z,6.50
2019-02-04T00:40:52.332Z,6.03
2019-02-04T00:41:23.528Z,7.17
2019-02-04T00:41:54.721Z,6.63
2019-02-04T00:42:25.963Z,5.83
2019-02-04T00:42:57.188Z,6.10
2019-02-04T00:43:28.364Z,6.77
2019-02-04T00:43:59.594Z,7.57
2019-02-04T00:44:30.786Z,7.37
2019-02-04T00:45:04.952Z,7.47
2019-02-04T00:45:36.174Z,8.73
2019-02-04T00:46:07.408Z,8.83
2019-02-04T00:46:38.605Z,9.07
2019-02-04T00:47:09.815Z,8.27
2019-02-04T00:47:41.298Z,6.90
2019-02-04T00:48:12.547Z,6.13
2019-02-04T00:48:44.684Z,5.70
2019-02-04T00:49:15.942Z,6.33
2019-02-04T00:49:47.119Z,5.33
2019-02-04T00:50:19.798Z,5.93
2019-02-04T00:50:51.985Z,5.67
2019-02-04T00:51:23.255Z,5.90
2019-02-04T00:51:54.447Z,5.97
2019-02-04T00:52:25.686Z,5.63
2019-02-04T00:52:56.892Z,6.43
2019-02-04T00:53:28.478Z,5.60
2019-02-04T00:53:59.753Z,5.43
2019-02-04T00:54:31.027Z,5.83
2019-02-04T00:55:08.997Z,6.03
2019-02-04T00:55:40.253Z,5.63
2019-02-04T00:56:11.426Z,5.90
2019-02-04T00:56:42.656Z,5.63
2019-02-04T00:57:13.868Z,5.43
2019-02-04T00:57:45.182Z,5.33
2019-02-04T00:58:16.389Z,6.00
2019-02-04T00:58:47.620Z,5.40
2019-02-04T00:59:18.841Z,5.77
2019-02-04T00:59:50.065Z,5.00
2019-02-04T01:00:28.843Z,4.90
2019-02-04T01:01:00.084Z,5.47
2019-02-04T01:01:31.603Z,5.73
2019-02-04T01:02:02.910Z,5.00
2019-02-04T01:02:34.418Z,4.83
2019-02-04T01:03:05.801Z,4.83
2019-02-04T01:03:37.139Z,5.37
2019-02-04T01:04:08.501Z,4.73
2019-02-04T01:04:39.705Z,4.93
2019-02-04T01:05:11.061Z,5.00
2019-02-04T01:05:42.237Z,4.80
2019-02-04T01:06:13.479Z,4.80
2019-02-04T01:06:44.666Z,4.50
2019-02-04T01:07:16.140Z,5.00
2019-02-04T01:07:47.434Z,5.27
2019-02-04T01:08:19.122Z,4.87
2019-02-04T01:08:51.218Z,5.93
2019-02-04T01:09:22.438Z,6.20
2019-02-04T01:09:53.646Z,6.47
2019-02-04T01:10:29.029Z,6.97
2019-02-04T01:11:00.306Z,6.07
2019-02-04T01:11:31.669Z,6.30
2019-02-04T01:12:02.852Z,5.80
2019-02-04T01:12:34.414Z,5.90
2019-02-04T01:13:05.618Z,5.83
2019-02-04T01:13:37.868Z,5.50
2019-02-04T01:14:09.102Z,4.80
2019-02-04T01:14:40.338Z,6.17
2019-02-04T01:15:11.954Z,6.37
2019-02-04T01:15:43.177Z,5.57
2019-02-04T01:16:14.433Z,5.60
2019-02-04T01:16:45.707Z,5.93
2019-02-04T01:17:16.961Z,5.57
2019-02-04T01:17:48.215Z,5.67
2019-02-04T01:18:19.461Z,5.73
2019-02-04T01:18:50.691Z,5.27
2019-02-04T01:19:21.937Z,5.47
2019-02-04T01:19:53.280Z,5.37
2019-02-04T01:20:28.047Z,5.93
2019-02-04T01:20:59.426Z,4.97
2019-02-04T01:21:30.649Z,5.40
2019-02-04T01:22:02.188Z,5.43
2019-02-04T01:22:33.478Z,5.40
2019-02-04T01:23:04.760Z,5.57
2019-02-04T01:23:35.994Z,4.73
2019-02-04T01:24:07.227Z,4.87
2019-02-04T01:24:38.438Z,4.80
2019-02-04T01:25:09.762Z,5.17
2019-02-04T01:25:41.085Z,4.57
2019-02-04T01:26:12.416Z,4.97
2019-02-04T01:26:43.717Z,4.77
2019-02-04T01:27:15.004Z,4.67
2019-02-04T01:27:46.669Z,4.30
2019-02-04T01:28:17.940Z,4.37
2019-02-04T01:28:49.146Z,4.60
2019-02-04T01:29:20.397Z,4.13
2019-02-04T01:29:51.600Z,4.80
2019-02-04T01:30:23.345Z,4.27
2019-02-04T01:30:54.555Z,4.60
2019-02-04T01:31:25.807Z,4.30
2019-02-04T01:31:56.981Z,4.37
2019-02-04T01:32:28.205Z,4.50
2019-02-04T01:32:59.369Z,4.43
2019-02-04T01:33:30.956Z,4.73
2019-02-04T01:34:02.163Z,4.97
2019-02-04T01:34:33.481Z,4.83
2019-02-04T01:35:04.775Z,4.57
2019-02-04T01:35:36.134Z,4.70
2019-02-04T01:36:07.356Z,4.37
2019-02-04T01:36:38.738Z,4.90
2019-02-04T01:37:10.049Z,4.77
2019-02-04T01:37:41.291Z,4.70
2019-02-04T01:38:12.515Z,4.47
2019-02-04T01:38:43.887Z,4.57
2019-02-04T01:39:15.387Z,4.57
2019-02-04T01:39:46.638Z,4.50
2019-02-04T01:40:24.404Z,4.33
2019-02-04T01:40:55.653Z,4.23
2019-02-04T01:41:26.850Z,4.43
2019-02-04T01:41:58.124Z,4.07
2019-02-04T01:42:29.406Z,3.90
2019-02-04T01:43:00.688Z,4.13
2019-02-04T01:43:32.019Z,4.03
2019-02-04T01:44:03.312Z,4.50
2019-02-04T01:44:34.629Z,3.57
2019-02-04T01:45:07.152Z,3.90
2019-02-04T01:45:38.434Z,4.10
2019-02-04T01:46:09.744Z,4.10
2019-02-04T01:46:41.024Z,3.70
2019-02-04T01:47:18.073Z,3.73
2019-02-04T01:47:45.919Z,4.00
2019-02-04T01:48:17.249Z,3.77
2019-02-04T01:48:48.501Z,4.40
2019-02-04T01:49:19.670Z,4.57
2019-02-04T01:49:50.947Z,3.80
2019-02-04T01:50:22.258Z,3.80
2019-02-04T01:50:53.615Z,4.07
2019-02-04T01:51:24.819Z,4.23
2019-02-04T01:51:56.066Z,3.90
2019-02-04T01:52:27.232Z,4.40
2019-02-04T01:52:59.892Z,4.60
2019-02-04T01:53:31.100Z,5.17
2019-02-04T01:54:03.533Z,4.63
2019-02-04T01:54:34.775Z,4.70
2019-02-04T01:55:10.318Z,4.20
2019-02-04T01:55:41.630Z,4.63
2019-02-04T01:56:12.851Z,4.50
2019-02-04T01:56:44.047Z,5.20
2019-02-04T01:57:15.298Z,5.00
2019-02-04T01:57:49.918Z,5.17
2019-02-04T01:58:21.196Z,4.30
2019-02-04T01:58:52.444Z,4.30
2019-02-04T01:59:23.717Z,4.43
2019-02-04T01:59:54.992Z,4.30
2019-02-04T02:00:32.139Z,4.00
2019-02-04T02:01:03.467Z,3.90
2019-02-04T02:01:34.952Z,3.97
2019-02-04T02:02:06.549Z,3.83
2019-02-04T02:02:37.747Z,3.53
2019-02-04T02:03:09.011Z,3.40
2019-02-04T02:03:40.199Z,3.63
2019-02-04T02:04:11.425Z,3.60
2019-02-04T02:04:42.631Z,3.80
2019-02-04T02:05:13.962Z,3.70
2019-02-04T02:05:45.172Z,3.33
2019-02-04T02:06:16.576Z,4.00
2019-02-04T02:06:48.790Z,3.07
2019-02-04T02:07:20.031Z,3.50
2019-02-04T02:07:51.484Z,3.27
2019-02-04T02:08:22.726Z,3.60
2019-02-04T02:08:53.949Z,3.73
2019-02-04T02:09:25.143Z,3.97
2019-02-04T02:09:56.355Z,3.70
2019-02-04T02:10:27.550Z,3.93
2019-02-04T02:10:58.764Z,4.00
2019-02-04T02:11:29.962Z,4.03
2019-02-04T02:12:01.583Z,4.23
2019-02-04T02:12:32.824Z,3.80
2019-02-04T02:13:04.022Z,4.00
2019-02-04T02:13:35.631Z,3.70
2019-02-04T02:14:06.835Z,4.60
2019-02-04T02:14:38.078Z,4.40
2019-02-04T02:15:09.269Z,4.20
2019-02-04T02:15:40.496Z,4.20
2019-02-04T02:16:11.801Z,4.17
2019-02-04T02:16:43.031Z,3.77
2019-02-04T02:17:25.678Z,4.00
2019-02-04T02:17:47.415Z,4.00
2019-02-04T02:18:19.690Z,3.43
2019-02-04T02:18:50.999Z,3.97
2019-02-04T02:19:22.219Z,3.70
2019-02-04T02:19:53.439Z,4.10
2019-02-04T02:20:26.313Z,3.77
2019-02-04T02:20:57.650Z,3.33
2019-02-04T02:21:28.893Z,3.53
2019-02-04T02:22:00.180Z,3.40
2019-02-04T02:22:31.462Z,3.30
2019-02-04T02:23:02.977Z,3.87
2019-02-04T02:23:34.442Z,3.43
2019-02-04T02:24:05.712Z,3.67
2019-02-04T02:24:36.961Z,3.13
2019-02-04T02:25:08.248Z,3.50
2019-02-04T02:25:39.432Z,3.43
2019-02-04T02:26:10.770Z,3.33
2019-02-04T02:26:41.955Z,3.53
2019-02-04T02:27:13.365Z,3.60
2019-02-04T02:27:44.603Z,3.63
2019-02-04T02:28:15.888Z,3.73
2019-02-04T02:28:47.073Z,3.13
2019-02-04T02:29:18.325Z,3.67
2019-02-04T02:29:49.526Z,3.57
2019-02-04T02:30:29.739Z,4.20
2019-02-04T02:31:01.044Z,3.90
2019-02-04T02:31:32.507Z,3.80
2019-02-04T02:32:03.687Z,4.10
2019-02-04T02:32:35.188Z,4.07
2019-02-04T02:33:07.373Z,3.90
2019-02-04T02:33:38.635Z,4.50
2019-02-04T02:34:10.136Z,3.97
2019-02-04T02:34:41.349Z,4.20
2019-02-04T02:35:12.584Z,3.90
2019-02-04T02:35:43.808Z,3.83
2019-02-04T02:36:14.998Z,3.57
2019-02-04T02:36:46.227Z,3.67
2019-02-04T02:37:17.548Z,3.37
2019-02-04T02:37:48.782Z,3.60
2019-02-04T02:38:20.088Z,3.40
2019-02-04T02:38:51.337Z,3.70
2019-02-04T02:39:22.694Z,3.10
2019-02-04T02:39:54.208Z,3.57
2019-02-04T02:40:31.452Z,3.30
2019-02-04T02:41:03.111Z,3.60
2019-02-04T02:41:34.438Z,3.80
2019-02-04T02:42:05.747Z,3.23
2019-02-04T02:42:36.959Z,3.30
2019-02-04T02:43:08.187Z,2.83
2019-02-04T02:43:39.405Z,3.23
2019-02-04T02:44:10.683Z,3.10
2019-02-04T02:44:41.885Z,3.30
2019-02-04T02:45:13.194Z,3.17
2019-02-04T02:45:44.557Z,3.17
2019-02-04T02:46:15.797Z,3.13
2019-02-04T02:46:47.381Z,3.60
2019-02-04T02:47:18.617Z,3.40
2019-02-04T02:47:49.837Z,3.40
2019-02-04T02:48:21.104Z,4.07
2019-02-04T02:48:53.293Z,3.53
2019-02-04T02:49:24.539Z,3.67
2019-02-04T02:49:55.743Z,3.37
2019-02-04T02:50:26.986Z,3.20
2019-02-04T02:50:58.159Z,3.60
2019-02-04T02:51:29.413Z,3.83
2019-02-04T02:52:00.609Z,3.60
2019-02-04T02:52:32.210Z,3.67
2019-02-04T02:53:03.392Z,3.60
2019-02-04T02:53:34.629Z,4.00
2019-02-04T02:54:05.818Z,3.80
2019-02-04T02:54:37.064Z,4.47
2019-02-04T02:55:13.062Z,4.13
2019-02-04T02:55:44.303Z,3.93
2019-02-04T02:56:15.518Z,3.83
2019-02-04T02:56:47.005Z,3.40
2019-02-04T02:57:18.269Z,3.30
2019-02-04T02:57:49.478Z,3.60
2019-02-04T02:58:20.675Z,3.50
2019-02-04T02:58:51.925Z,3.33
2019-02-04T02:59:23.526Z,3.07
2019-02-04T02:59:54.721Z,3.10
2019-02-04T03:00:26.969Z,3.20
2019-02-04T03:00:58.197Z,2.83
2019-02-04T03:01:29.391Z,3.03
2019-02-04T03:02:00.623Z,3.03
2019-02-04T03:02:31.866Z,2.90
2019-02-04T03:03:03.130Z,3.10
2019-02-04T03:03:34.441Z,3.00
2019-02-04T03:04:05.658Z,3.23
2019-02-04T03:04:36.870Z,3.17
2019-02-04T03:05:12.399Z,3.17
2019-02-04T03:05:43.619Z,3.20
2019-02-04T03:06:15.238Z,2.77
2019-02-04T03:06:46.454Z,2.90
2019-02-04T03:07:17.656Z,3.37
2019-02-04T03:07:48.880Z,2.93
2019-02-04T03:08:20.080Z,2.87
2019-02-04T03:08:51.314Z,2.90
2019-02-04T03:09:22.540Z,3.13
2019-02-04T03:09:53.758Z,2.93
2019-02-04T03:10:27.780Z,3.53
2019-02-04T03:10:58.986Z,3.70
2019-02-04T03:11:30.222Z,3.13
2019-02-04T03:12:01.624Z,3.00
2019-02-04T03:12:32.929Z,2.73
2019-02-04T03:13:05.205Z,2.70
2019-02-04T03:13:36.423Z,2.50
2019-02-04T03:14:07.637Z,2.80
2019-02-04T03:14:38.849Z,2.57
2019-02-04T03:15:10.951Z,2.77
2019-02-04T03:15:42.189Z,2.50
2019-02-04T03:16:13.381Z,2.50
2019-02-04T03:16:44.617Z,2.40
2019-02-04T03:17:15.801Z,2.67
2019-02-04T03:17:52.035Z,2.60
2019-02-04T03:18:20.472Z,2.67
2019-02-04T03:18:52.099Z,2.67
2019-02-04T03:19:23.273Z,2.80
2019-02-04T03:19:54.517Z,2.50
2019-02-04T03:20:25.758Z,2.40
2019-02-04T03:20:57.066Z,2.60
2019-02-04T03:21:28.228Z,2.47
2019-02-04T03:21:59.486Z,2.60
2019-02-04T03:22:30.683Z,2.80
2019-02-04T03:23:02.225Z,3.10
2019-02-04T03:23:34.580Z,2.67
2019-02-04T03:24:05.895Z,2.70
2019-02-04T03:24:37.428Z,2.80
2019-02-04T03:25:12.993Z,2.93
2019-02-04T03:25:44.494Z,2.80
2019-02-04T03:26:15.769Z,2.97
2019-02-04T03:26:46.918Z,3.00
2019-02-04T03:27:18.148Z,2.83
2019-02-04T03:27:49.356Z,2.97
2019-02-04T03:28:20.703Z,3.00
2019-02-04T03:28:51.914Z,3.23
2019-02-04T03:29:23.197Z,3.17
2019-02-04T03:29:54.501Z,2.70
2019-02-04T03:30:28.633Z,2.73
2019-02-04T03:30:59.873Z,3.07
2019-02-04T03:31:31.099Z,2.50
2019-02-04T03:32:02.311Z,2.30
2019-02-04T03:32:33.932Z,2.60
2019-02-04T03:33:05.160Z,2.93
2019-02-04T03:33:36.476Z,2.63
2019-02-04T03:34:07.729Z,2.57
2019-02-04T03:34:40.009Z,2.40
2019-02-04T03:35:11.327Z,2.50
2019-02-04T03:35:42.536Z,2.50
2019-02-04T03:36:13.822Z,2.73
2019-02-04T03:36:45.009Z,2.93
2019-02-04T03:37:16.215Z,3.03
2019-02-04T03:37:47.406Z,2.97
2019-02-04T03:38:19.046Z,2.90
2019-02-04T03:38:50.261Z,2.70
2019-02-04T03:39:21.571Z,3.10
2019-02-04T03:39:52.833Z,2.63
2019-02-04T03:40:26.917Z,3.13
2019-02-04T03:40:58.156Z,3.20
2019-02-04T03:41:29.329Z,2.73
2019-02-04T03:42:00.699Z,2.83
2019-02-04T03:42:31.989Z,2.87
2019-02-04T03:43:03.239Z,2.60
2019-02-04T03:43:34.548Z,2.90
2019-02-04T03:44:05.953Z,3.10
2019-02-04T03:44:37.154Z,2.77
2019-02-04T03:45:10.297Z,3.20
2019-02-04T03:45:41.529Z,2.80
2019-02-04T03:46:12.758Z,2.73
2019-02-04T03:46:43.970Z,2.90
2019-02-04T03:47:15.168Z,2.90
2019-02-04T03:47:46.417Z,2.40
2019-02-04T03:48:17.722Z,2.70
2019-02-04T03:48:48.935Z,2.50
2019-02-04T03:49:20.140Z,2.37
2019-02-04T03:49:51.348Z,2.20
2019-02-04T03:50:22.588Z,2.13
2019-02-04T03:50:54.154Z,2.23
2019-02-04T03:51:25.401Z,2.47
2019-02-04T03:51:57.692Z,2.37
2019-02-04T03:52:28.922Z,2.53
2019-02-04T03:53:00.124Z,2.63
2019-02-04T03:53:31.502Z,2.50
2019-02-04T03:54:02.822Z,2.60
2019-02-04T03:54:34.022Z,2.67
2019-02-04T03:55:08.730Z,2.70
2019-02-04T03:55:39.987Z,3.20
2019-02-04T03:56:11.287Z,2.50
2019-02-04T03:56:42.590Z,2.93
2019-02-04T03:57:13.765Z,2.77
2019-02-04T03:57:45.269Z,2.80
2019-02-04T03:58:16.558Z,2.57
2019-02-04T03:58:47.724Z,2.73
2019-02-04T03:59:18.937Z,2.60
2019-02-04T03:59:50.155Z,2.20
2019-02-04T04:00:31.073Z,2.50
2019-02-04T04:01:02.286Z,2.53
2019-02-04T04:01:33.609Z,2.17
2019-02-04T04:02:04.957Z,2.37
2019-02-04T04:02:36.209Z,1.90
2019-02-04T04:03:07.394Z,2.10
2019-02-04T04:03:38.664Z,2.23
2019-02-04T04:04:09.887Z,2.20
2019-02-04T04:04:41.166Z,2.20
2019-02-04T04:05:12.382Z,2.47
2019-02-04T04:05:44.022Z,2.10
2019-02-04T04:06:15.212Z,2.60
2019-02-04T04:06:46.445Z,2.60
2019-02-04T04:07:17.666Z,2.50
2019-02-04T04:07:48.977Z,2.50
2019-02-04T04:08:20.240Z,2.63
2019-02-04T04:08:51.526Z,2.80
2019-02-04T04:09:22.744Z,2.63
2019-02-04T04:09:53.969Z,3.00
2019-02-04T04:10:25.198Z,2.93
2019-02-04T04:10:56.523Z,2.80
2019-02-04T04:11:28.023Z,2.70
2019-02-04T04:11:59.349Z,3.20
2019-02-04T04:12:30.555Z,2.47
2019-02-04T04:13:01.753Z,2.60
2019-02-04T04:13:32.969Z,2.57
2019-02-04T04:14:04.189Z,2.50
2019-02-04T04:14:35.393Z,2.50
2019-02-04T04:15:12.097Z,3.00
2019-02-04T04:15:43.277Z,2.50
2019-02-04T04:16:14.610Z,2.63
2019-02-04T04:16:45.793Z,3.27
2019-02-04T04:17:17.019Z,2.90
2019-02-04T04:17:48.207Z,3.20
2019-02-04T04:18:19.836Z,2.53
2019-02-04T04:18:53.425Z,3.10
2019-02-04T04:19:24.135Z,2.80
2019-02-04T04:19:55.330Z,2.90
2019-02-04T04:20:26.582Z,5.07
2019-02-04T04:20:57.786Z,6.37
2019-02-04T04:21:29.100Z,7.93
2019-02-04T04:22:00.277Z,8.40
2019-02-04T04:22:31.782Z,7.53
2019-02-04T04:23:02.956Z,6.77
2019-02-04T04:23:34.462Z,4.60
2019-02-04T04:24:06.045Z,4.43
2019-02-04T04:24:37.314Z,8.20
2019-02-04T04:25:16.541Z,6.57
2019-02-04T04:25:47.798Z,3.90
2019-02-04T04:26:19.024Z,3.67
2019-02-04T04:26:50.286Z,4.90
2019-02-04T04:27:21.463Z,5.53
2019-02-04T04:27:52.718Z,4.57
2019-02-04T04:28:23.893Z,5.60
2019-02-04T04:28:55.135Z,6.03
2019-02-04T04:29:26.315Z,4.40
2019-02-04T04:29:57.561Z,4.77
2019-02-04T04:30:28.793Z,6.73
2019-02-04T04:31:00.397Z,6.83
2019-02-04T04:31:31.648Z,6.27
2019-02-04T04:32:02.974Z,5.37
2019-02-04T04:32:34.464Z,5.13
2019-02-04T04:33:05.688Z,5.37
2019-02-04T04:33:36.902Z,5.43
2019-02-04T04:34:08.118Z,5.13
2019-02-04T04:34:39.319Z,5.80
2019-02-04T04:35:10.538Z,5.93
2019-02-04T04:35:41.732Z,5.30
2019-02-04T04:36:12.960Z,5.47
2019-02-04T04:36:44.491Z,4.93
2019-02-04T04:37:15.719Z,3.63
2019-02-04T04:37:46.924Z,4.07
2019-02-04T04:38:18.197Z,5.60
2019-02-04T04:38:49.397Z,5.17
2019-02-04T04:39:20.649Z,5.93
2019-02-04T04:39:51.930Z,6.13
2019-02-04T04:40:23.154Z,7.27
2019-02-04T04:40:54.355Z,5.07
2019-02-04T04:41:25.574Z,5.03
2019-02-04T04:41:56.807Z,5.37
2019-02-04T04:42:28.487Z,6.67
2019-02-04T04:42:59.714Z,7.10
2019-02-04T04:43:30.922Z,5.80
2019-02-04T04:44:02.145Z,4.50
2019-02-04T04:44:33.375Z,4.07
2019-02-04T04:45:15.557Z,3.43
2019-02-04T04:45:46.997Z,4.97
2019-02-04T04:46:18.203Z,4.60
2019-02-04T04:46:49.441Z,4.43
2019-02-04T04:47:20.627Z,5.20
2019-02-04T04:47:51.883Z,6.43
2019-02-04T04:48:26.609Z,6.50
2019-02-04T04:48:56.219Z,8.53
2019-02-04T04:49:27.381Z,6.63
2019-02-04T04:49:58.659Z,6.77
2019-02-04T04:50:30.128Z,7.40
2019-02-04T04:51:01.658Z,7.00
2019-02-04T04:51:33.244Z,7.30
2019-02-04T04:52:04.628Z,7.20
2019-02-04T04:52:35.794Z,6.70
2019-02-04T04:53:07.022Z,6.70
2019-02-04T04:53:38.209Z,7.70
2019-02-04T04:54:09.472Z,8.03
2019-02-04T04:54:40.639Z,7.73
2019-02-04T04:55:25.889Z,4.80
2019-02-04T04:55:57.086Z,5.80
2019-02-04T04:56:28.335Z,4.80
2019-02-04T04:56:59.642Z,6.73
2019-02-04T04:57:30.843Z,5.67
2019-02-04T04:58:02.295Z,4.43
2019-02-04T04:58:33.491Z,4.07
2019-02-04T04:59:05.745Z,4.13
2019-02-04T04:59:37.251Z,4.33
2019-02-04T05:00:15.317Z,4.70
2019-02-04T05:00:46.866Z,4.10
2019-02-04T05:01:18.132Z,4.77
2019-02-04T05:01:49.420Z,4.80
2019-02-04T05:02:20.714Z,5.03
2019-02-04T05:02:51.980Z,5.50
2019-02-04T05:03:23.300Z,4.80
2019-02-04T05:03:54.565Z,5.20
2019-02-04T05:04:25.858Z,4.80
2019-02-04T05:04:57.143Z,5.33
2019-02-04T05:05:28.399Z,5.80
2019-02-04T05:05:59.799Z,6.43
2019-02-04T05:06:31.630Z,6.87
2019-02-04T05:07:02.904Z,6.80
2019-02-04T05:07:34.090Z,6.47
2019-02-04T05:08:05.339Z,6.47
2019-02-04T05:08:36.540Z,6.37
2019-02-04T05:09:07.797Z,7.77
2019-02-04T05:09:38.995Z,5.60
2019-02-04T05:10:14.555Z,7.10
2019-02-04T05:10:45.721Z,6.77
2019-02-04T05:11:16.953Z,7.13
2019-02-04T05:11:48.163Z,6.10
2019-02-04T05:12:19.408Z,8.53
2019-02-04T05:12:50.683Z,6.83
2019-02-04T05:13:22.266Z,7.60
2019-02-04T05:13:53.547Z,7.27
2019-02-04T05:14:24.786Z,9.10
2019-02-04T05:14:56.071Z,8.80
2019-02-04T05:15:27.351Z,7.97
2019-02-04T05:15:58.606Z,9.80
2019-02-04T05:16:29.868Z,10.20
2019-02-04T05:17:01.407Z,12.07
2019-02-04T05:17:32.686Z,11.37
2019-02-04T05:18:04.006Z,10.90
2019-02-04T05:18:38.200Z,8.57
2019-02-04T05:19:08.506Z,8.93
2019-02-04T05:19:39.766Z,7.73
2019-02-04T05:20:14.373Z,8.57
2019-02-04T05:20:45.627Z,9.30
2019-02-04T05:21:16.852Z,5.90
2019-02-04T05:21:48.038Z,7.80
2019-02-04T05:22:19.278Z,8.87
2019-02-04T05:22:50.462Z,9.37
2019-02-04T05:23:21.710Z,10.37
2019-02-04T05:23:52.905Z,11.80
2019-02-04T05:24:24.155Z,10.63
2019-02-04T05:24:55.367Z,9.27
2019-02-04T05:25:26.649Z,11.90
2019-02-04T05:25:58.114Z,12.23
2019-02-04T05:26:29.395Z,12.07
2019-02-04T05:27:00.752Z,13.33
2019-02-04T05:27:32.110Z,15.60
2019-02-04T05:28:03.411Z,17.10
2019-02-04T05:28:35.631Z,14.43
2019-02-04T05:29:06.845Z,14.33
2019-02-04T05:29:38.103Z,14.90
2019-02-04T05:30:14.507Z,12.43
2019-02-04T05:30:45.717Z,16.43
2019-02-04T05:31:16.937Z,13.83
2019-02-04T05:31:48.113Z,13.43
2019-02-04T05:32:19.377Z,10.27
2019-02-04T05:32:50.965Z,6.43
2019-02-04T05:33:22.221Z,8.40
2019-02-04T05:33:54.425Z,9.87
2019-02-04T05:34:25.637Z,12.43
2019-02-04T05:34:57.537Z,13.33
2019-02-04T05:35:28.988Z,10.97
2019-02-04T05:36:00.188Z,10.00
2019-02-04T05:36:31.651Z,9.60
2019-02-04T05:37:02.866Z,8.67
2019-02-04T05:37:34.100Z,8.90
2019-02-04T05:38:05.287Z,8.90
2019-02-04T05:38:36.518Z,9.27
2019-02-04T05:39:07.706Z,9.07
2019-02-04T05:39:39.364Z,9.53
2019-02-04T05:40:15.774Z,8.83
2019-02-04T05:40:47.455Z,8.73
2019-02-04T05:41:18.778Z,8.50
2019-02-04T05:41:49.977Z,7.43
2019-02-04T05:42:21.261Z,8.27
2019-02-04T05:42:52.483Z,8.80
2019-02-04T05:43:23.684Z,9.37
2019-02-04T05:43:54.913Z,8.10
2019-02-04T05:44:26.223Z,8.50
2019-02-04T05:44:57.495Z,7.27
2019-02-04T05:45:28.750Z,8.07
2019-02-04T05:45:59.961Z,6.93
2019-02-04T05:46:31.599Z,7.50
2019-02-04T05:47:02.997Z,7.50
2019-02-04T05:47:34.467Z,8.80
2019-02-04T05:48:05.680Z,5.83
2019-02-04T05:48:36.906Z,5.73
2019-02-04T05:49:08.140Z,7.47
2019-02-04T05:49:39.367Z,8.30
2019-02-04T05:50:13.202Z,7.80
2019-02-04T05:50:44.398Z,8.60
2019-02-04T05:51:15.596Z,9.73
2019-02-04T05:51:46.840Z,8.67
2019-02-04T05:52:18.380Z,9.47
2019-02-04T05:52:49.590Z,9.87
2019-02-04T05:53:20.817Z,7.67
2019-02-04T05:53:52.008Z,9.20
2019-02-04T05:54:23.224Z,10.57
2019-02-04T05:54:54.402Z,10.17
2019-02-04T05:55:25.600Z,9.87
2019-02-04T05:55:56.813Z,10.93
2019-02-04T05:56:28.129Z,11.33
2019-02-04T05:56:59.321Z,13.37
2019-02-04T05:57:30.588Z,12.27
2019-02-04T05:58:02.340Z,12.57
2019-02-04T05:58:33.626Z,12.00
2019-02-04T05:59:04.999Z,10.80
2019-02-04T05:59:36.269Z,10.87
2019-02-04T06:00:24.374Z,8.33
2019-02-04T06:00:55.625Z,8.83
2019-02-04T06:01:27.146Z,8.27
2019-02-04T06:01:58.376Z,8.67
2019-02-04T06:02:29.620Z,8.23
2019-02-04T06:03:00.865Z,9.20
2019-02-04T06:03:32.262Z,9.37
2019-02-04T06:04:03.517Z,10.13
2019-02-04T06:04:35.049Z,10.47
2019-02-04T06:05:09.775Z,11.03
2019-02-04T06:05:41.022Z,9.47
2019-02-04T06:06:12.248Z,11.93
2019-02-04T06:06:43.482Z,8.10
2019-02-04T06:07:15.506Z,8.03
2019-02-04T06:07:46.833Z,10.53
2019-02-04T06:08:18.454Z,9.07
2019-02-04T06:08:49.667Z,11.77
2019-02-04T06:09:20.846Z,13.80
2019-02-04T06:09:52.072Z,13.20
2019-02-04T06:10:23.290Z,14.97
2019-02-04T06:10:54.515Z,13.57
2019-02-04T06:11:25.750Z,8.17
2019-02-04T06:11:56.951Z,5.87
2019-02-04T06:12:28.205Z,5.10
2019-02-04T06:12:59.427Z,8.40
2019-02-04T06:13:30.648Z,9.73
2019-02-04T06:14:02.440Z,10.30
2019-02-04T06:14:33.644Z,10.17
2019-02-04T06:15:11.321Z,10.87
2019-02-04T06:15:42.559Z,13.90
2019-02-04T06:16:13.983Z,13.03
2019-02-04T06:16:45.296Z,15.93
2019-02-04T06:17:16.481Z,16.43
2019-02-04T06:17:47.724Z,12.50
2019-02-04T06:18:18.912Z,12.23
2019-02-04T06:19:00.053Z,11.30
2019-02-04T06:19:23.306Z,10.33
2019-02-04T06:19:54.540Z,12.67
2019-02-04T06:20:25.731Z,9.40
2019-02-04T06:20:57.274Z,8.70
2019-02-04T06:21:28.442Z,13.43
2019-02-04T06:21:59.729Z,11.53
2019-02-04T06:22:30.960Z,10.13
2019-02-04T06:23:02.478Z,11.03
2019-02-04T06:23:33.675Z,11.07
2019-02-04T06:24:05.011Z,13.30
2019-02-04T06:24:36.295Z,21.33
2019-02-04T06:25:07.584Z,16.20
2019-02-04T06:25:38.916Z,13.17
2019-02-04T06:26:10.166Z,10.83
2019-02-04T06:26:41.641Z,16.83
2019-02-04T06:27:12.865Z,12.67
2019-02-04T06:27:44.244Z,19.23
2019-02-04T06:28:15.534Z,19.40
2019-02-04T06:28:46.799Z,19.80
2019-02-04T06:29:18.091Z,19.57
2019-02-04T06:29:49.468Z,18.73
2019-02-04T06:30:20.782Z,13.93
2019-02-04T06:30:53.079Z,13.67
2019-02-04T06:31:24.367Z,13.80
2019-02-04T06:31:55.626Z,9.33
2019-02-04T06:32:26.806Z,8.63
2019-02-04T06:32:58.646Z,11.70
2019-02-04T06:33:30.263Z,12.10
2019-02-04T06:34:01.779Z,12.77
2019-02-04T06:34:32.964Z,11.77
2019-02-04T06:35:04.923Z,12.20
2019-02-04T06:35:36.202Z,13.67
2019-02-04T06:36:07.500Z,16.80
2019-02-04T06:36:38.810Z,23.63
2019-02-04T06:37:10.062Z,25.33
2019-02-04T06:37:41.266Z,23.87
2019-02-04T06:38:12.551Z,17.77
2019-02-04T06:38:43.748Z,17.40
2019-02-04T06:39:15.338Z,18.47
2019-02-04T06:39:46.589Z,21.67
2019-02-04T06:40:17.934Z,16.33
2019-02-04T06:40:49.131Z,15.07
2019-02-04T06:41:20.373Z,12.27
2019-02-04T06:41:52.562Z,14.80
2019-02-04T06:42:23.853Z,13.93
2019-02-04T06:42:55.077Z,15.27
2019-02-04T06:43:26.335Z,15.00
2019-02-04T06:43:57.591Z,15.67
2019-02-04T06:44:28.847Z,12.67
2019-02-04T06:45:00.344Z,13.57
2019-02-04T06:45:31.845Z,12.97
2019-02-04T06:46:03.147Z,13.70
2019-02-04T06:46:34.519Z,14.57
2019-02-04T06:47:05.807Z,14.00
2019-02-04T06:47:37.071Z,11.03
2019-02-04T06:48:08.367Z,13.20
2019-02-04T06:48:39.669Z,12.77
2019-02-04T06:49:12.358Z,11.00
2019-02-04T06:49:44.044Z,13.20
2019-02-04T06:50:17.837Z,13.67
2019-02-04T06:50:51.038Z,18.63
2019-02-04T06:51:22.334Z,14.43
2019-02-04T06:51:53.925Z,10.73
2019-02-04T06:52:25.191Z,11.83
2019-02-04T06:52:56.384Z,11.93
2019-02-04T06:53:27.622Z,12.47
2019-02-04T06:53:58.804Z,13.80
2019-02-04T06:54:30.064Z,15.00
2019-02-04T06:55:01.254Z,17.70
2019-02-04T06:55:32.765Z,15.67
2019-02-04T06:56:03.936Z,16.33
2019-02-04T06:56:36.019Z,13.07
2019-02-04T06:57:07.397Z,17.40
2019-02-04T06:57:38.845Z,16.10
2019-02-04T06:58:10.173Z,15.03
2019-02-04T06:58:41.383Z,16.97